createdAt,value
2022-09-05T00:02:01.718Z,2.42
2022-09-05T00:07:59.134Z,2.17
2022-09-05T00:13:27.124Z,1.95
2022-09-05T00:24:18.944Z,2.25
2022-09-05T00:25:14.911Z,2.00
2022-09-05T00:31:53.729Z,1.90
2022-09-05T00:37:05.520Z,2.30
2022-09-05T00:42:27.345Z,2.42
2022-09-05T00:47:57.111Z,2.25
2022-09-05T00:53:26.176Z,2.40
2022-09-05T00:59:15.701Z,2.50
2022-09-05T01:04:56.210Z,2.75
2022-09-05T01:10:33.684Z,2.33
2022-09-05T01:16:30.083Z,2.60
2022-09-05T01:22:34.738Z,2.63
2022-09-05T01:29:17.249Z,2.33
2022-09-05T01:34:31.742Z,2.40
2022-09-05T01:40:14.798Z,2.30
2022-09-05T01:45:50.846Z,2.40
2022-09-05T01:51:29.067Z,3.35
2022-09-05T01:57:44.664Z,2.65
2022-09-05T02:03:33.460Z,2.95
2022-09-05T02:09:19.701Z,2.65
2022-09-05T02:14:54.457Z,3.15
2022-09-05T02:20:24.465Z,2.90
2022-09-05T02:26:01.229Z,3.05
2022-09-05T02:31:40.537Z,2.60
2022-09-05T02:38:31.721Z,2.40
2022-09-05T02:45:09.111Z,2.78
2022-09-05T02:51:20.114Z,2.38
2022-09-05T02:57:34.737Z,2.63
2022-09-05T03:00:52.178Z,2.70
2022-09-05T03:06:34.837Z,3.30
2022-09-05T03:12:28.584Z,2.40
2022-09-05T03:18:21.123Z,2.40
2022-09-05T03:24:06.708Z,2.22
2022-09-05T03:29:58.820Z,2.78
2022-09-05T03:36:13.928Z,2.13
2022-09-05T03:42:25.909Z,2.50
2022-09-05T03:48:28.149Z,2.97
2022-09-05T03:57:12.689Z,2.40
2022-09-05T04:00:08.310Z,2.65
2022-09-05T04:08:23.831Z,2.72
2022-09-05T04:11:29.850Z,2.30
2022-09-05T04:17:00.862Z,2.28
2022-09-05T04:22:26.861Z,2.38
2022-09-05T04:28:14.246Z,2.05
2022-09-05T04:33:57.515Z,2.58
2022-09-05T04:39:19.182Z,2.53
2022-09-05T04:44:47.699Z,2.88
2022-09-05T04:50:23.667Z,2.78
2022-09-05T04:55:51.671Z,2.85
2022-09-05T05:06:03.585Z,3.40
2022-09-05T05:07:18.699Z,2.97
2022-09-05T05:18:03.730Z,3.30
2022-09-05T05:18:59.635Z,3.25
2022-09-05T05:24:33.730Z,3.42
2022-09-05T05:30:06.713Z,3.38
2022-09-05T05:35:32.024Z,3.30
2022-09-05T05:41:32.816Z,3.03
2022-09-05T05:47:03.535Z,2.75
2022-09-05T05:52:54.632Z,3.22
2022-09-05T05:58:53.383Z,4.05
2022-09-05T06:04:45.103Z,3.60
2022-09-05T06:15:00.480Z,3.15
2022-09-05T06:16:40.035Z,4.05
2022-09-05T06:22:31.115Z,4.10
2022-09-05T06:28:18.482Z,4.25
2022-09-05T06:34:02.971Z,4.20
2022-09-05T06:39:40.966Z,4.18
2022-09-05T06:45:39.209Z,4.13
2022-09-05T06:51:45.280Z,4.18
2022-09-05T06:57:19.988Z,3.50
2022-09-05T07:03:08.943Z,4.05
2022-09-05T07:08:48.017Z,4.00
2022-09-05T07:14:28.345Z,3.90
2022-09-05T07:19:59.464Z,3.42
2022-09-05T07:25:31.624Z,3.40
2022-09-05T07:31:27.709Z,4.00
2022-09-05T07:37:15.562Z,3.60
2022-09-05T07:42:45.799Z,3.50
2022-09-05T07:48:34.350Z,3.40
2022-09-05T07:56:49.149Z,5.28
2022-09-05T07:59:57.018Z,4.43
2022-09-05T08:05:34.220Z,4.65
2022-09-05T08:11:23.566Z,4.05
2022-09-05T08:16:48.022Z,4.35
2022-09-05T08:22:20.154Z,4.22
2022-09-05T08:28:07.006Z,3.50
2022-09-05T08:33:34.585Z,3.38
2022-09-05T08:39:00.662Z,3.80
2022-09-05T08:46:40.232Z,3.60
2022-09-05T08:50:55.124Z,2.85
2022-09-05T08:56:24.079Z,3.53
2022-09-05T09:02:44.583Z,3.50
2022-09-05T09:08:24.190Z,2.72
2022-09-05T09:13:54.563Z,2.97
2022-09-05T09:19:29.570Z,2.55
2022-09-05T09:25:15.940Z,2.50
2022-09-05T09:30:43.175Z,2.30
2022-09-05T09:36:21.932Z,2.80
2022-09-05T09:42:02.190Z,2.55
2022-09-05T09:48:00.941Z,2.50
2022-09-05T09:53:40.391Z,2.67
2022-09-05T09:59:23.663Z,2.40
2022-09-05T10:10:33.315Z,3.10
2022-09-05T10:11:52.092Z,2.95
2022-09-05T10:17:20.190Z,2.30
2022-09-05T10:22:50.864Z,2.70
2022-09-05T10:28:45.123Z,2.53
2022-09-05T10:35:14.463Z,2.10
2022-09-05T10:40:14.563Z,3.85
2022-09-05T10:45:58.130Z,2.53
2022-09-05T10:51:30.776Z,2.40
2022-09-05T10:57:07.010Z,2.33
2022-09-05T11:02:38.418Z,2.10
2022-09-05T11:08:13.770Z,2.13
2022-09-05T11:13:46.045Z,1.73
2022-09-05T11:19:34.037Z,2.35
2022-09-05T11:24:59.761Z,1.63
2022-09-05T11:30:30.236Z,1.80
2022-09-05T11:40:04.817Z,1.52
2022-09-05T11:42:15.814Z,2.00
2022-09-05T11:48:03.997Z,1.90
2022-09-05T11:53:43.313Z,1.83
2022-09-05T11:59:15.615Z,1.80
2022-09-05T12:05:48.291Z,1.85
2022-09-05T12:11:52.041Z,1.83
2022-09-05T12:17:52.354Z,2.00
2022-09-05T12:23:38.472Z,1.80
2022-09-05T12:29:27.477Z,1.58
2022-09-05T12:36:11.452Z,1.65
2022-09-05T12:41:37.514Z,1.58
2022-09-05T12:46:46.744Z,1.67
2022-09-05T12:52:22.356Z,1.60
2022-09-05T13:02:57.033Z,1.58
2022-09-05T13:03:31.563Z,1.58
2022-09-05T13:09:01.828Z,1.80
2022-09-05T13:15:07.997Z,1.60
2022-09-05T13:20:35.676Z,1.92
2022-09-05T13:26:05.679Z,1.60
2022-09-05T13:38:01.125Z,1.40
2022-09-05T13:38:30.860Z,1.42
2022-09-05T13:43:38.760Z,1.40
2022-09-05T13:49:29.787Z,1.60
2022-09-05T13:55:08.946Z,1.70
2022-09-05T14:00:39.620Z,1.75
2022-09-05T14:06:46.476Z,2.60
2022-09-05T14:12:06.311Z,1.65
2022-09-05T14:17:51.211Z,1.73
2022-09-05T14:23:15.495Z,1.60
2022-09-05T14:28:46.792Z,1.70
2022-09-05T14:37:43.228Z,1.40
2022-09-05T14:40:51.896Z,1.77
2022-09-05T14:46:17.682Z,1.75
2022-09-05T14:51:39.592Z,1.50
2022-09-05T15:00:47.412Z,1.52
2022-09-05T15:03:04.194Z,1.80
2022-09-05T15:10:23.943Z,1.50
2022-09-05T15:14:12.263Z,1.90
2022-09-05T15:20:06.097Z,1.90
2022-09-05T15:25:30.902Z,1.77
2022-09-05T15:31:00.209Z,1.80
2022-09-05T15:36:32.664Z,1.63
2022-09-05T15:41:56.019Z,1.40
2022-09-05T15:47:24.243Z,1.90
2022-09-05T15:52:54.887Z,1.83
2022-09-05T15:58:18.983Z,1.30
2022-09-05T16:08:32.797Z,1.85
2022-09-05T16:10:41.442Z,1.77
2022-09-05T16:20:51.017Z,2.03
2022-09-05T16:23:27.787Z,1.70
2022-09-05T16:26:59.071Z,2.25
2022-09-05T16:32:28.430Z,1.70
2022-09-05T16:38:05.375Z,1.73
2022-09-05T16:43:33.145Z,1.80
2022-09-05T16:49:18.497Z,1.60
2022-09-05T16:55:20.922Z,1.90
2022-09-05T17:00:51.758Z,2.10
2022-09-05T17:06:35.771Z,2.22
2022-09-05T17:12:06.979Z,1.98
2022-09-05T17:18:21.278Z,1.75
2022-09-05T17:28:29.972Z,2.05
2022-09-05T17:36:03.331Z,2.25
2022-09-05T17:41:43.202Z,1.88
2022-09-05T17:47:10.127Z,1.88
2022-09-05T17:52:56.551Z,2.03
2022-09-05T17:58:21.175Z,2.00
2022-09-05T18:03:44.890Z,2.60
2022-09-05T18:09:31.182Z,2.03
2022-09-05T18:14:53.869Z,2.00
2022-09-05T18:21:21.545Z,3.70
2022-09-05T18:26:44.713Z,3.42
2022-09-05T18:32:10.875Z,2.63
2022-09-05T18:37:35.670Z,3.38
2022-09-05T18:43:10.313Z,3.38
2022-09-05T18:48:42.616Z,2.75
2022-09-05T18:54:20.345Z,3.00
2022-09-05T18:59:56.584Z,2.30
2022-09-05T19:05:43.139Z,3.97
2022-09-05T19:11:26.911Z,3.20
2022-09-05T19:16:50.775Z,3.25
2022-09-05T19:23:08.143Z,2.35
2022-09-05T19:30:35.914Z,2.08
2022-09-05T19:37:13.087Z,2.13
2022-09-05T19:43:42.796Z,2.60
2022-09-05T19:47:48.946Z,3.17
2022-09-05T19:50:57.109Z,2.95
2022-09-05T19:56:21.080Z,2.30
2022-09-05T20:01:44.438Z,3.13
2022-09-05T20:07:22.038Z,2.70
2022-09-05T20:12:44.189Z,3.00
2022-09-05T20:18:18.000Z,3.88
2022-09-05T20:23:51.817Z,3.35
2022-09-05T20:29:38.869Z,3.17
2022-09-05T20:41:05.321Z,3.00
2022-09-05T20:43:19.345Z,2.85
2022-09-05T20:52:38.110Z,4.88
2022-09-05T20:54:27.282Z,3.25
2022-09-05T20:58:39.386Z,2.95
2022-09-05T21:04:03.967Z,3.20
2022-09-05T21:09:29.302Z,4.88
2022-09-05T21:15:08.078Z,4.30
2022-09-05T21:20:57.423Z,3.35
2022-09-05T21:26:25.603Z,3.03
2022-09-05T21:31:54.505Z,3.00
2022-09-05T21:37:19.548Z,3.22
2022-09-05T21:47:33.924Z,4.00
2022-09-05T21:48:24.355Z,4.03
2022-09-05T21:59:17.233Z,3.28
2022-09-05T21:59:45.420Z,3.53
2022-09-05T22:05:08.545Z,3.10
2022-09-05T22:10:41.601Z,3.83
2022-09-05T22:16:14.653Z,3.92
2022-09-05T22:21:39.421Z,3.40
2022-09-05T22:27:12.489Z,3.00
2022-09-05T22:32:35.529Z,3.42
2022-09-05T22:38:12.430Z,3.90
2022-09-05T22:43:36.008Z,3.95
2022-09-05T22:48:57.736Z,3.28
2022-09-05T22:54:19.470Z,3.95
2022-09-05T22:59:41.231Z,4.07
2022-09-05T23:05:04.700Z,3.72
2022-09-05T23:10:27.799Z,3.58
2022-09-05T23:15:50.694Z,4.65
2022-09-05T23:21:14.531Z,3.17
2022-09-05T23:26:36.263Z,3.47
2022-09-05T23:31:58.044Z,3.35
2022-09-05T23:37:19.779Z,2.83
2022-09-05T23:42:41.664Z,2.97
2022-09-05T23:48:03.712Z,3.08
2022-09-05T23:53:25.594Z,2.95
2022-09-05T23:58:47.348Z,2.80
